Time;durP1;ratioP1;P1;durP2;ratioP2;P2;SDS_P1;SDS_P2;PMS_P1;PMS_P2;Temp;Humidity;BMP_temperature;BMP_pressure;BME280_temperature;BME280_humidity;BME280_pressure;Samples;Min_cycle;Max_cycle;Signal;HPM_P1;HPM_P2
2023/10/02 00:01:56;;;;;;;;;;;13.90;99.90;;;;;;20973413;28;19920;-81
2023/10/02 00:12:01;;;;;;;;;;;13.70;99.90;;;;;;20988372;28;20416;-81
2023/10/02 00:22:08;;;;;;;;;;;13.80;99.90;;;;;;20993748;28;20379;-81
2023/10/02 00:32:11;;;;;;;;;;;13.70;99.90;;;;;;20987632;28;19939;-82
2023/10/02 00:42:24;;;;;;;;;;;13.60;99.90;;;;;;20988714;28;19934;-81
2023/10/02 00:52:26;;;;;;;;;;;13.60;99.90;;;;;;21005647;28;19943;-81
2023/10/02 01:02:28;;;;;;;;;;;13.60;99.90;;;;;;20989959;28;19912;-81
2023/10/02 01:12:38;;;;;;;;;;;13.50;99.90;;;;;;20993735;28;19917;-81
2023/10/02 01:22:42;;;;;;;;;;;13.30;99.90;;;;;;21003317;28;19919;-81
2023/10/02 01:33:06;;;;;;;;;;;13.30;99.90;;;;;;20987044;28;19916;-81
2023/10/02 01:43:13;;;;;;;;;;;13.20;99.90;;;;;;21003760;28;20022;-81
2023/10/02 01:53:29;;;;;;;;;;;12.90;99.90;;;;;;20972858;28;19923;-82
2023/10/02 02:03:29;;;;;;;;;;;13.00;99.90;;;;;;20975121;28;20330;-80
2023/10/02 02:13:40;;;;;;;;;;;13.10;99.90;;;;;;20994845;28;19994;-81
2023/10/02 02:23:41;;;;;;;;;;;13.10;99.90;;;;;;20989306;28;19917;-80
2023/10/02 02:33:42;;;;;;;;;;;13.00;99.90;;;;;;20977063;28;19916;-81
2023/10/02 02:43:46;;;;;;;;;;;13.00;99.90;;;;;;20974224;28;20375;-81
2023/10/02 02:53:47;;;;;;;;;;;12.70;99.90;;;;;;20997218;28;20015;-81
2023/10/02 03:03:51;;;;;;;;;;;12.50;99.90;;;;;;21011075;28;19913;-81
2023/10/02 03:13:52;;;;;;;;;;;12.40;99.90;;;;;;21000550;28;19916;-80
2023/10/02 03:23:59;;;;;;;;;;;12.30;99.90;;;;;;21023076;28;19912;-80
2023/10/02 03:34:00;;;;;;;;;;;12.30;99.90;;;;;;21027781;28;19924;-80
2023/10/02 03:44:01;;;;;;;;;;;12.30;99.90;;;;;;20992547;28;19923;-81
2023/10/02 03:54:17;;;;;;;;;;;12.20;99.90;;;;;;21017870;28;19916;-81
2023/10/02 04:04:21;;;;;;;;;;;12.20;99.90;;;;;;21000937;28;19912;-80
2023/10/02 04:14:31;;;;;;;;;;;12.00;99.90;;;;;;21030613;28;19917;-80
2023/10/02 04:24:50;;;;;;;;;;;11.90;99.90;;;;;;20990935;28;19981;-80
2023/10/02 04:34:50;;;;;;;;;;;11.80;99.90;;;;;;21002514;28;19923;-81
2023/10/02 04:44:58;;;;;;;;;;;11.90;99.90;;;;;;21029594;28;19942;-80
2023/10/02 04:55:07;;;;;;;;;;;11.80;99.90;;;;;;21032979;28;19943;-81
2023/10/02 05:05:09;;;;;;;;;;;11.80;99.90;;;;;;21020878;28;19913;-80
2023/10/02 05:15:13;;;;;;;;;;;11.70;99.90;;;;;;21018166;28;19920;-80
2023/10/02 05:25:18;;;;;;;;;;;11.70;99.90;;;;;;21010487;28;19924;-79
2023/10/02 05:35:23;;;;;;;;;;;11.60;99.90;;;;;;21021229;28;20406;-81
2023/10/02 05:45:38;;;;;;;;;;;11.60;99.90;;;;;;21028674;28;19919;-82
2023/10/02 05:55:57;;;;;;;;;;;11.60;99.90;;;;;;21019168;28;20294;-81
2023/10/02 06:06:15;;;;;;;;;;;11.50;99.90;;;;;;21020412;28;19913;-80
2023/10/02 06:16:17;;;;;;;;;;;11.70;99.90;;;;;;21017230;28;19939;-80
2023/10/02 06:26:18;;;;;;;;;;;11.80;99.90;;;;;;21026522;28;20394;-81
2023/10/02 06:36:19;;;;;;;;;;;11.80;99.90;;;;;;21024466;28;19934;-78
2023/10/02 06:46:21;;;;;;;;;;;12.00;99.90;;;;;;21035369;28;19920;-79
2023/10/02 06:56:22;;;;;;;;;;;12.20;99.90;;;;;;21010461;28;19912;-80
2023/10/02 07:06:28;;;;;;;;;;;12.30;99.90;;;;;;21042186;28;19947;-81
2023/10/02 07:16:32;;;;;;;;;;;12.50;99.90;;;;;;21055735;28;19943;-80
2023/10/02 07:26:49;;;;;;;;;;;12.80;99.90;;;;;;21023352;28;19920;-82
2023/10/02 07:36:50;;;;;;;;;;;12.90;99.90;;;;;;21012923;28;19938;-82
2023/10/02 07:46:55;;;;;;;;;;;13.20;99.90;;;;;;21041434;28;19926;-79
2023/10/02 07:56:57;;;;;;;;;;;13.60;99.90;;;;;;21037643;28;20498;-77
2023/10/02 08:07:00;;;;;;;;;;;14.20;99.90;;;;;;21046052;28;20375;-78
2023/10/02 08:17:08;;;;;;;;;;;14.60;99.90;;;;;;21031720;28;19958;-79
2023/10/02 08:27:09;;;;;;;;;;;16.10;99.90;;;;;;21053742;28;19916;-80
2023/10/02 08:37:09;;;;;;;;;;;16.50;99.90;;;;;;21036308;28;19916;-80
2023/10/02 08:47:11;;;;;;;;;;;18.10;99.90;;;;;;21027435;28;19923;-81
2023/10/02 08:57:12;;;;;;;;;;;18.40;99.90;;;;;;21026225;28;19920;-78
2023/10/02 09:07:23;;;;;;;;;;;18.50;99.90;;;;;;21057575;28;20011;-79
2023/10/02 09:17:24;;;;;;;;;;;18.50;99.90;;;;;;21056151;28;20330;-79
2023/10/02 09:27:27;;;;;;;;;;;18.70;99.90;;;;;;21059487;28;19924;-79
2023/10/02 09:37:27;;;;;;;;;;;20.90;99.90;;;;;;21050130;28;19912;-81
2023/10/02 09:47:30;;;;;;;;;;;21.70;99.90;;;;;;21065894;28;20014;-78
2023/10/02 09:57:33;;;;;;;;;;;21.60;99.90;;;;;;21046210;28;19972;-80
2023/10/02 10:07:51;;;;;;;;;;;22.20;99.90;;;;;;21051214;28;19916;-81
2023/10/02 10:17:53;;;;;;;;;;;23.30;99.90;;;;;;21044722;28;19934;-79
2023/10/02 10:27:54;;;;;;;;;;;23.30;99.90;;;;;;21068463;28;19919;-80
2023/10/02 10:37:56;;;;;;;;;;;23.30;99.90;;;;;;21049539;28;19912;-80
2023/10/02 10:47:58;;;;;;;;;;;25.60;99.90;;;;;;21032038;28;20007;-78
2023/10/02 10:57:59;;;;;;;;;;;26.50;99.90;;;;;;21020895;28;19912;-78
2023/10/02 11:08:23;;;;;;;;;;;26.70;99.90;;;;;;21021378;28;20295;-78
2023/10/02 11:18:25;;;;;;;;;;;26.80;99.90;;;;;;21052943;28;19913;-79
2023/10/02 11:28:27;;;;;;;;;;;28.00;99.90;;;;;;21031033;28;19923;-80
2023/10/02 11:38:27;;;;;;;;;;;28.30;99.90;;;;;;21006832;28;19913;-79
2023/10/02 11:48:28;;;;;;;;;;;28.10;99.90;;;;;;21045890;28;20454;-79
2023/10/02 11:58:29;;;;;;;;;;;28.50;99.90;;;;;;21031268;28;19935;-79
2023/10/02 12:08:33;;;;;;;;;;;28.70;99.90;;;;;;21012341;28;19916;-78
2023/10/02 12:18:35;;;;;;;;;;;29.10;99.90;;;;;;21051606;28;19912;-77
2023/10/02 12:28:36;;;;;;;;;;;30.20;99.90;;;;;;21020266;28;20414;-78
2023/10/02 12:38:38;;;;;;;;;;;29.40;99.90;;;;;;21031943;28;19912;-78
2023/10/02 12:48:39;;;;;;;;;;;30.10;99.90;;;;;;21050489;28;19924;-78
2023/10/02 12:58:39;;;;;;;;;;;29.80;99.90;;;;;;21018539;28;19984;-78
2023/10/02 13:08:44;;;;;;;;;;;29.30;99.90;;;;;;21056471;28;20399;-78
2023/10/02 13:18:45;;;;;;;;;;;29.10;99.90;;;;;;21038160;28;19913;-81
2023/10/02 13:28:52;;;;;;;;;;;28.50;99.90;;;;;;21068350;28;20021;-80
2023/10/02 13:38:54;;;;;;;;;;;29.10;99.90;;;;;;21052745;28;19921;-81
2023/10/02 13:48:54;;;;;;;;;;;29.50;99.90;;;;;;21046805;28;19917;-78
2023/10/02 13:58:55;;;;;;;;;;;30.10;99.90;;;;;;21036677;28;19919;-80
2023/10/02 14:08:57;;;;;;;;;;;29.50;99.90;;;;;;21069948;28;19916;-80
2023/10/02 14:18:59;;;;;;;;;;;28.70;99.90;;;;;;21051114;28;19912;-81
2023/10/02 14:29:00;;;;;;;;;;;28.90;99.90;;;;;;21062300;28;19916;-79
2023/10/02 14:39:03;;;;;;;;;;;28.90;99.90;;;;;;21062326;28;19959;-78
2023/10/02 14:49:06;;;;;;;;;;;28.80;99.90;;;;;;21042070;28;20339;-78
2023/10/02 14:59:07;;;;;;;;;;;29.20;99.90;;;;;;21071964;28;19916;-78
2023/10/02 15:09:09;;;;;;;;;;;29.10;99.90;;;;;;21060522;28;19920;-82
2023/10/02 15:19:12;;;;;;;;;;;29.00;99.90;;;;;;21075086;28;19976;-81
2023/10/02 15:29:13;;;;;;;;;;;28.70;99.90;;;;;;21064724;28;19923;-80
2023/10/02 15:39:14;;;;;;;;;;;28.30;99.90;;;;;;21079316;28;20223;-77
2023/10/02 15:49:14;;;;;;;;;;;28.40;99.90;;;;;;21083498;28;20211;-78
2023/10/02 15:59:16;;;;;;;;;;;27.70;99.90;;;;;;21079823;28;19912;-80
2023/10/02 16:09:18;;;;;;;;;;;26.80;99.90;;;;;;21094592;28;20290;-80
2023/10/02 16:19:19;;;;;;;;;;;26.30;99.90;;;;;;21100565;28;19912;-79
2023/10/02 16:29:20;;;;;;;;;;;25.50;99.90;;;;;;21051690;28;19923;-80
2023/10/02 16:39:20;;;;;;;;;;;24.70;99.90;;;;;;21104516;28;19919;-80
2023/10/02 16:49:21;;;;;;;;;;;23.80;99.90;;;;;;21089313;28;19927;-80
2023/10/02 16:59:21;;;;;;;;;;;23.60;99.90;;;;;;21091896;28;20365;-80
2023/10/02 17:09:23;;;;;;;;;;;22.70;99.90;;;;;;21087244;28;19926;-78
2023/10/02 17:19:24;;;;;;;;;;;22.50;99.90;;;;;;21097297;28;19919;-78
2023/10/02 17:29:25;;;;;;;;;;;22.10;99.90;;;;;;21098189;28;19920;-79
2023/10/02 17:39:26;;;;;;;;;;;20.50;99.90;;;;;;21075490;28;19912;-81
2023/10/02 17:49:27;;;;;;;;;;;20.40;99.90;;;;;;21088551;28;19938;-79
2023/10/02 17:59:28;;;;;;;;;;;20.80;99.90;;;;;;21042395;28;19913;-81
2023/10/02 18:09:28;;;;;;;;;;;20.90;99.90;;;;;;21040313;28;19921;-81
2023/10/02 18:19:29;;;;;;;;;;;20.20;99.90;;;;;;21054941;28;19965;-80
2023/10/02 18:29:30;;;;;;;;;;;20.20;99.90;;;;;;21051219;28;19927;-80
2023/10/02 18:39:31;;;;;;;;;;;19.90;99.90;;;;;;21042754;28;20368;-80
2023/10/02 18:49:32;;;;;;;;;;;19.80;99.90;;;;;;21043878;28;19927;-80
2023/10/02 18:59:33;;;;;;;;;;;19.60;99.90;;;;;;21028837;28;19923;-80
2023/10/02 19:09:35;;;;;;;;;;;19.40;99.90;;;;;;21003017;28;19917;-77
2023/10/02 19:19:36;;;;;;;;;;;18.60;99.90;;;;;;21005468;28;19913;-81
2023/10/02 19:29:37;;;;;;;;;;;18.70;99.90;;;;;;20994967;28;19917;-80
2023/10/02 19:39:38;;;;;;;;;;;18.50;99.90;;;;;;20994267;28;19913;-79
2023/10/02 19:49:39;;;;;;;;;;;18.40;99.90;;;;;;20988805;28;19922;-81
2023/10/02 19:59:40;;;;;;;;;;;18.50;99.90;;;;;;21040553;28;20030;-80
2023/10/02 20:09:41;;;;;;;;;;;18.40;99.90;;;;;;20980855;28;19920;-80
2023/10/02 20:19:42;;;;;;;;;;;18.20;99.90;;;;;;20981852;28;20390;-80
2023/10/02 20:29:42;;;;;;;;;;;18.00;99.90;;;;;;20979518;28;19971;-81
2023/10/02 20:39:43;;;;;;;;;;;17.90;99.90;;;;;;20986203;28;19927;-80
2023/10/02 20:49:44;;;;;;;;;;;17.80;99.90;;;;;;20981308;28;19928;-79
2023/10/02 20:59:45;;;;;;;;;;;17.30;99.90;;;;;;21002784;28;19921;-80
2023/10/02 21:09:45;;;;;;;;;;;17.30;99.90;;;;;;21106215;28;19916;-82
2023/10/02 21:19:46;;;;;;;;;;;17.20;99.90;;;;;;21095124;28;20375;-82
2023/10/02 21:29:47;;;;;;;;;;;17.10;99.90;;;;;;21084046;28;19960;-82
2023/10/02 21:39:47;;;;;;;;;;;17.00;99.90;;;;;;21073798;28;19920;-82
2023/10/02 21:49:51;;;;;;;;;;;16.90;99.90;;;;;;21125983;28;19916;-82
2023/10/02 21:59:52;;;;;;;;;;;16.70;99.90;;;;;;21110083;28;19956;-83
2023/10/02 22:09:52;;;;;;;;;;;16.60;99.90;;;;;;21094879;28;19941;-81
2023/10/02 22:19:54;;;;;;;;;;;16.50;99.90;;;;;;21123632;28;19923;-80
2023/10/02 22:29:54;;;;;;;;;;;16.30;99.90;;;;;;21100949;28;19924;-80
2023/10/02 22:39:55;;;;;;;;;;;16.20;99.90;;;;;;21117325;28;19912;-82
2023/10/02 22:49:59;;;;;;;;;;;16.10;99.90;;;;;;21090844;28;19915;-83
2023/10/02 23:00:01;;;;;;;;;;;15.90;99.90;;;;;;21092865;28;19916;-81
2023/10/02 23:10:02;;;;;;;;;;;15.80;99.90;;;;;;21082797;28;19937;-81
2023/10/02 23:20:04;;;;;;;;;;;15.70;99.90;;;;;;21120661;28;19916;-81
2023/10/02 23:30:09;;;;;;;;;;;15.70;99.90;;;;;;21135926;28;20006;-82
2023/10/02 23:40:11;;;;;;;;;;;15.60;99.90;;;;;;21134326;28;19920;-81
2023/10/02 23:50:18;;;;;;;;;;;15.30;99.90;;;;;;21099691;28;20417;-82
